createdAt,value
2022-12-20T00:02:25.006Z,30.78
2022-12-20T00:04:56.985Z,30.80
2022-12-20T00:07:29.120Z,30.85
2022-12-20T00:10:01.198Z,30.89
2022-12-20T00:12:33.184Z,30.93
2022-12-20T00:15:05.391Z,30.96
2022-12-20T00:17:37.844Z,30.97
2022-12-20T00:20:10.929Z,31.04
2022-12-20T00:22:42.874Z,31.09
2022-12-20T00:25:14.931Z,31.13
2022-12-20T00:27:47.458Z,31.17
2022-12-20T00:30:19.934Z,31.20
2022-12-20T00:32:51.922Z,31.26
2022-12-20T00:35:24.085Z,31.36
2022-12-20T00:37:56.789Z,31.35
2022-12-20T00:40:28.779Z,31.46
2022-12-20T00:43:00.751Z,31.52
2022-12-20T00:45:32.859Z,31.55
2022-12-20T00:48:04.857Z,31.61
2022-12-20T00:50:36.829Z,31.67
2022-12-20T00:53:11.060Z,31.74
2022-12-20T00:55:43.680Z,31.73
2022-12-20T00:58:15.962Z,31.79
2022-12-20T01:00:54.036Z,31.69
2022-12-20T01:03:29.444Z,31.71
2022-12-20T01:06:02.418Z,31.79
2022-12-20T01:08:34.488Z,31.97
2022-12-20T01:11:09.382Z,32.07
2022-12-20T01:13:42.632Z,32.05
2022-12-20T01:16:35.218Z,32.05
2022-12-20T01:19:07.634Z,32.00
2022-12-20T01:21:44.968Z,31.96
2022-12-20T01:24:18.287Z,31.90
2022-12-20T01:26:50.170Z,31.81
2022-12-20T01:29:23.803Z,31.77
2022-12-20T01:31:55.945Z,31.66
2022-12-20T01:34:28.055Z,31.55
2022-12-20T01:37:00.343Z,31.41
2022-12-20T01:39:32.210Z,31.35
2022-12-20T01:42:04.250Z,31.30
2022-12-20T01:44:36.298Z,31.23
2022-12-20T01:47:08.272Z,31.15
2022-12-20T01:49:45.395Z,31.04
2022-12-20T01:52:20.642Z,30.82
2022-12-20T01:55:16.701Z,30.69
2022-12-20T01:57:54.352Z,30.54
2022-12-20T02:00:26.757Z,30.48
2022-12-20T02:02:59.747Z,30.46
2022-12-20T02:05:36.216Z,30.43
2022-12-20T02:08:08.141Z,30.36
2022-12-20T02:10:45.054Z,30.38
2022-12-20T02:13:20.879Z,30.41
2022-12-20T02:15:56.684Z,30.41
2022-12-20T02:18:48.943Z,30.49
2022-12-20T02:21:23.711Z,30.57
2022-12-20T02:24:14.777Z,30.64
2022-12-20T02:27:05.553Z,30.70
2022-12-20T02:29:39.979Z,30.75
2022-12-20T02:32:18.066Z,30.79
2022-12-20T02:34:51.120Z,30.81
2022-12-20T02:37:23.284Z,30.85
2022-12-20T02:39:58.281Z,30.94
2022-12-20T02:42:30.645Z,30.98
2022-12-20T02:45:20.061Z,31.05
2022-12-20T02:47:53.507Z,31.11
2022-12-20T02:50:35.079Z,31.15
2022-12-20T02:53:07.360Z,31.19
2022-12-20T02:55:59.795Z,31.21
2022-12-20T02:58:44.561Z,31.27
2022-12-20T03:01:24.208Z,31.31
2022-12-20T03:03:59.004Z,31.37
2022-12-20T03:06:33.951Z,31.40
2022-12-20T03:09:06.907Z,31.43
2022-12-20T03:11:40.109Z,31.48
2022-12-20T03:14:12.197Z,31.51
2022-12-20T03:16:44.331Z,31.57
2022-12-20T03:19:17.194Z,31.64
2022-12-20T03:21:49.964Z,31.70
2022-12-20T03:24:21.876Z,31.70
2022-12-20T03:26:54.289Z,31.70
2022-12-20T03:29:27.759Z,31.73
2022-12-20T03:31:59.634Z,31.80
2022-12-20T03:34:32.783Z,31.80
2022-12-20T03:37:05.340Z,31.83
2022-12-20T03:39:37.550Z,31.81
2022-12-20T03:42:10.059Z,31.81
2022-12-20T03:44:42.275Z,31.81
2022-12-20T03:47:15.300Z,31.83
2022-12-20T03:49:47.840Z,31.84
2022-12-20T03:52:20.228Z,31.84
2022-12-20T03:54:52.717Z,31.81
2022-12-20T03:57:34.941Z,31.85
2022-12-20T04:00:08.120Z,31.88
2022-12-20T04:02:46.727Z,32.00
2022-12-20T04:05:19.500Z,32.08
2022-12-20T04:07:51.652Z,32.06
2022-12-20T04:10:23.939Z,32.08
2022-12-20T04:12:56.217Z,32.01
2022-12-20T04:15:28.259Z,31.97
2022-12-20T04:18:00.536Z,31.89
2022-12-20T04:20:32.631Z,31.85
2022-12-20T04:23:19.457Z,31.66
2022-12-20T04:25:52.955Z,31.47
2022-12-20T04:28:24.995Z,31.25
2022-12-20T04:30:58.193Z,31.06
2022-12-20T04:33:31.019Z,30.89
2022-12-20T04:36:03.484Z,30.79
2022-12-20T04:38:36.623Z,30.72
2022-12-20T04:41:09.389Z,30.61
2022-12-20T04:43:52.524Z,30.54
2022-12-20T04:46:25.450Z,30.49
2022-12-20T04:48:59.836Z,30.50
2022-12-20T04:51:32.685Z,30.46
2022-12-20T04:54:04.886Z,30.40
2022-12-20T04:56:44.559Z,30.31
2022-12-20T04:59:20.104Z,30.26
2022-12-20T05:01:54.576Z,30.23
2022-12-20T05:04:43.829Z,30.20
2022-12-20T05:07:15.995Z,30.22
2022-12-20T05:09:52.699Z,30.17
2022-12-20T05:12:24.592Z,30.12
2022-12-20T05:14:57.354Z,30.08
2022-12-20T05:17:29.688Z,30.09
2022-12-20T05:20:01.839Z,30.00
2022-12-20T05:22:54.248Z,29.90
2022-12-20T05:25:45.896Z,29.83
2022-12-20T05:28:18.339Z,29.76
2022-12-20T05:30:50.317Z,29.72
2022-12-20T05:33:22.397Z,29.69
2022-12-20T05:35:55.046Z,29.68
2022-12-20T05:38:27.761Z,29.70
2022-12-20T05:41:00.459Z,29.65
2022-12-20T05:43:32.859Z,29.60
2022-12-20T05:46:05.461Z,29.60
2022-12-20T05:48:44.283Z,29.60
2022-12-20T05:51:16.443Z,29.51
2022-12-20T05:54:02.003Z,29.42
2022-12-20T05:56:45.936Z,29.41
2022-12-20T05:59:18.494Z,29.29
2022-12-20T06:01:51.671Z,29.32
2022-12-20T06:04:24.181Z,29.32
2022-12-20T06:06:57.456Z,29.34
2022-12-20T06:09:30.597Z,29.29
2022-12-20T06:12:10.779Z,29.24
2022-12-20T06:14:44.178Z,29.23
2022-12-20T06:17:17.757Z,29.19
2022-12-20T06:19:49.952Z,29.12
2022-12-20T06:22:22.574Z,29.13
2022-12-20T06:24:59.619Z,29.16
2022-12-20T06:27:36.610Z,29.09
2022-12-20T06:30:16.863Z,29.08
2022-12-20T06:32:58.724Z,29.08
2022-12-20T06:35:30.671Z,29.01
2022-12-20T06:38:03.899Z,29.04
2022-12-20T06:40:40.186Z,28.95
2022-12-20T06:43:12.665Z,28.94
2022-12-20T06:45:44.606Z,28.93
2022-12-20T06:48:17.282Z,28.90
2022-12-20T06:50:55.665Z,28.93
2022-12-20T06:53:29.044Z,28.87
2022-12-20T06:56:01.114Z,28.91
2022-12-20T06:58:33.031Z,28.91
2022-12-20T07:01:05.242Z,28.91
2022-12-20T07:03:37.452Z,28.92
2022-12-20T07:06:09.626Z,28.84
2022-12-20T07:08:41.609Z,28.74
2022-12-20T07:11:13.705Z,28.71
2022-12-20T07:13:45.552Z,28.78
2022-12-20T07:16:17.458Z,28.72
2022-12-20T07:18:50.753Z,28.66
2022-12-20T07:21:22.687Z,28.61
2022-12-20T07:23:55.652Z,28.53
2022-12-20T07:26:27.482Z,28.51
2022-12-20T07:28:59.533Z,28.62
2022-12-20T07:31:31.631Z,28.68
2022-12-20T07:34:04.435Z,28.72
2022-12-20T07:36:36.504Z,28.69
2022-12-20T07:39:09.439Z,28.71
2022-12-20T07:41:41.351Z,28.79
2022-12-20T07:44:19.488Z,28.85
2022-12-20T07:46:51.697Z,28.91
2022-12-20T07:49:23.813Z,28.93
2022-12-20T07:51:57.877Z,28.93
2022-12-20T07:54:41.217Z,29.01
2022-12-20T07:57:15.196Z,29.10
2022-12-20T07:59:51.203Z,29.10
2022-12-20T08:02:25.747Z,29.22
2022-12-20T08:04:58.024Z,29.25
2022-12-20T08:07:29.922Z,29.30
2022-12-20T08:10:02.678Z,29.26
2022-12-20T08:12:34.864Z,29.27
2022-12-20T08:15:07.209Z,29.20
2022-12-20T08:17:39.360Z,29.10
2022-12-20T08:20:11.534Z,29.10
2022-12-20T08:22:43.639Z,29.13
2022-12-20T08:25:15.732Z,29.17
2022-12-20T08:27:48.020Z,29.21
2022-12-20T08:30:20.165Z,29.26
2022-12-20T08:32:52.295Z,29.45
2022-12-20T08:35:24.496Z,29.66
2022-12-20T08:37:57.384Z,29.80
2022-12-20T08:40:29.532Z,30.00
2022-12-20T08:43:08.196Z,30.18
2022-12-20T08:45:42.189Z,30.35
2022-12-20T08:48:14.345Z,30.35
2022-12-20T08:50:46.373Z,30.22
2022-12-20T08:53:18.408Z,30.19
2022-12-20T08:55:50.670Z,30.17
2022-12-20T08:58:22.583Z,30.11
2022-12-20T09:00:54.508Z,30.05
2022-12-20T09:03:30.631Z,29.93
2022-12-20T09:06:05.235Z,29.87
2022-12-20T09:08:37.741Z,29.80
2022-12-20T09:11:12.657Z,29.81
2022-12-20T09:13:46.050Z,29.78
2022-12-20T09:16:18.828Z,29.72
2022-12-20T09:18:51.785Z,29.70
2022-12-20T09:21:24.004Z,29.69
2022-12-20T09:23:56.546Z,29.71
2022-12-20T09:26:28.501Z,29.70
2022-12-20T09:29:02.383Z,29.72
2022-12-20T09:31:34.499Z,29.70
2022-12-20T09:34:06.730Z,29.69
2022-12-20T09:36:39.220Z,29.65
2022-12-20T09:39:11.157Z,29.65
2022-12-20T09:41:43.640Z,29.64
2022-12-20T09:44:19.851Z,29.58
2022-12-20T09:46:55.500Z,29.43
2022-12-20T09:49:31.590Z,29.35
2022-12-20T09:52:03.652Z,29.31
2022-12-20T09:54:54.647Z,29.33
2022-12-20T09:57:45.061Z,29.28
2022-12-20T10:00:17.744Z,29.26
2022-12-20T10:03:10.006Z,29.18
2022-12-20T10:05:55.379Z,29.12
2022-12-20T10:08:33.413Z,29.14
2022-12-20T10:11:05.318Z,29.11
2022-12-20T10:13:55.993Z,29.09
2022-12-20T10:16:30.804Z,29.05
2022-12-20T10:19:14.386Z,29.01
2022-12-20T10:21:46.453Z,29.01
2022-12-20T10:24:18.486Z,28.93
2022-12-20T10:26:51.176Z,28.94
2022-12-20T10:29:23.133Z,28.87
2022-12-20T10:31:56.055Z,28.90
2022-12-20T10:34:34.980Z,28.80
2022-12-20T10:37:16.573Z,28.76
2022-12-20T10:39:49.417Z,28.78
2022-12-20T10:42:25.421Z,28.80
2022-12-20T10:44:57.288Z,28.86
2022-12-20T10:47:37.207Z,28.89
2022-12-20T10:50:16.153Z,28.96
2022-12-20T10:53:03.092Z,28.94
2022-12-20T10:55:36.634Z,29.01
2022-12-20T10:58:20.049Z,29.04
2022-12-20T11:00:51.979Z,29.06
2022-12-20T11:03:25.069Z,29.10
2022-12-20T11:06:04.924Z,29.21
2022-12-20T11:08:45.040Z,29.34
2022-12-20T11:11:21.144Z,29.49
2022-12-20T11:13:53.298Z,29.51
2022-12-20T11:16:27.118Z,29.48
2022-12-20T11:19:08.437Z,29.44
2022-12-20T11:21:55.638Z,29.39
2022-12-20T11:24:41.235Z,29.39
2022-12-20T11:27:15.640Z,29.30
2022-12-20T11:29:54.265Z,29.36
2022-12-20T11:32:33.254Z,29.35
2022-12-20T11:35:11.656Z,29.35
2022-12-20T11:37:51.528Z,29.33
2022-12-20T11:40:23.606Z,29.38
2022-12-20T11:42:58.431Z,29.50
2022-12-20T11:45:36.693Z,29.63
2022-12-20T11:48:27.472Z,29.69
2022-12-20T11:51:15.619Z,29.61
2022-12-20T11:53:58.911Z,29.49
2022-12-20T11:56:43.924Z,29.52
2022-12-20T11:59:16.527Z,29.69
2022-12-20T12:01:51.268Z,29.79
2022-12-20T12:04:25.907Z,29.69
2022-12-20T12:07:06.988Z,29.42
2022-12-20T12:09:40.701Z,29.21
2022-12-20T12:12:18.851Z,29.08
2022-12-20T12:14:53.346Z,28.98
2022-12-20T12:17:37.494Z,29.00
2022-12-20T12:20:21.934Z,28.84
2022-12-20T12:22:55.568Z,28.75
2022-12-20T12:25:27.673Z,28.56
2022-12-20T12:27:59.922Z,28.70
2022-12-20T12:30:36.740Z,29.02
2022-12-20T12:33:39.475Z,29.46
2022-12-20T12:36:30.575Z,29.89
2022-12-20T12:39:06.845Z,30.55
2022-12-20T12:41:57.281Z,30.84
2022-12-20T12:44:29.998Z,31.30
2022-12-20T12:47:02.751Z,31.67
2022-12-20T12:49:34.778Z,32.02
2022-12-20T12:52:07.597Z,32.76
2022-12-20T12:54:40.910Z,33.25
2022-12-20T12:57:16.890Z,33.64
2022-12-20T12:59:52.355Z,33.92
2022-12-20T13:02:25.594Z,34.36
2022-12-20T13:05:07.033Z,34.37
2022-12-20T13:07:43.973Z,34.85
2022-12-20T13:10:15.719Z,35.35
2022-12-20T13:12:47.632Z,35.68
2022-12-20T13:15:20.071Z,35.68
2022-12-20T13:17:52.872Z,35.38
2022-12-20T13:20:26.588Z,34.87
2022-12-20T13:23:12.003Z,34.81
2022-12-20T13:25:48.176Z,34.66
2022-12-20T13:28:20.178Z,34.84
2022-12-20T13:30:58.496Z,34.60
2022-12-20T13:33:39.748Z,34.00
2022-12-20T13:36:11.931Z,33.93
2022-12-20T13:38:45.199Z,33.98
2022-12-20T13:41:25.004Z,33.72
2022-12-20T13:44:00.717Z,33.68
2022-12-20T13:46:39.572Z,33.23
2022-12-20T13:49:12.786Z,33.08
2022-12-20T13:51:44.879Z,33.02
2022-12-20T13:54:25.069Z,32.96
2022-12-20T13:56:59.905Z,32.88
2022-12-20T13:59:32.233Z,32.84
2022-12-20T14:02:09.956Z,32.72
2022-12-20T14:04:43.284Z,32.57
2022-12-20T14:07:16.116Z,32.45
2022-12-20T14:09:50.332Z,32.38
2022-12-20T14:12:28.549Z,32.28
2022-12-20T14:15:03.438Z,32.28
2022-12-20T14:17:39.742Z,32.21
2022-12-20T14:20:19.690Z,32.19
2022-12-20T14:22:51.629Z,32.20
2022-12-20T14:25:43.104Z,32.10
2022-12-20T14:28:27.181Z,32.09
2022-12-20T14:31:01.507Z,32.03
2022-12-20T14:33:40.623Z,32.00
2022-12-20T14:36:19.883Z,31.98
2022-12-20T14:38:52.315Z,31.94
2022-12-20T14:41:33.511Z,31.90
2022-12-20T14:44:08.650Z,31.81
2022-12-20T14:46:46.976Z,31.64
2022-12-20T14:49:27.170Z,31.61
2022-12-20T14:52:07.445Z,31.60
2022-12-20T14:57:40.603Z,31.46
2022-12-20T15:00:15.428Z,31.42
2022-12-20T15:02:50.724Z,31.46
2022-12-20T15:05:41.332Z,31.32
2022-12-20T15:08:14.350Z,31.23
2022-12-20T15:10:55.404Z,31.06
2022-12-20T15:13:28.691Z,31.04
2022-12-20T15:16:01.280Z,31.03
2022-12-20T15:18:33.658Z,30.99
2022-12-20T15:21:06.825Z,30.87
2022-12-20T15:23:40.257Z,30.87
2022-12-20T15:26:14.455Z,30.90
2022-12-20T15:28:46.704Z,30.84
2022-12-20T15:31:19.640Z,30.84
2022-12-20T15:33:51.806Z,30.82
2022-12-20T15:36:25.405Z,30.80
2022-12-20T15:39:14.094Z,30.87
2022-12-20T15:41:48.138Z,30.90
2022-12-20T15:44:21.396Z,30.91
2022-12-20T15:46:53.655Z,30.91
2022-12-20T15:49:27.703Z,30.92
2022-12-20T15:51:59.544Z,30.92
2022-12-20T15:54:33.005Z,30.91
2022-12-20T15:57:09.771Z,30.90
2022-12-20T15:59:59.795Z,30.88
2022-12-20T16:02:33.760Z,30.89
2022-12-20T16:05:06.226Z,30.80
2022-12-20T16:07:38.847Z,30.81
2022-12-20T16:10:14.501Z,30.72
2022-12-20T16:12:46.643Z,30.68
2022-12-20T16:15:20.224Z,30.64
2022-12-20T16:17:52.059Z,30.60
2022-12-20T16:20:23.969Z,30.55
2022-12-20T16:22:56.056Z,30.51
2022-12-20T16:25:29.427Z,30.42
2022-12-20T16:28:01.586Z,30.40
2022-12-20T16:30:33.416Z,30.37
2022-12-20T16:33:05.874Z,30.38
2022-12-20T16:35:38.046Z,30.34
2022-12-20T16:38:10.164Z,30.35
2022-12-20T16:40:42.351Z,30.28
2022-12-20T16:43:15.283Z,30.30
2022-12-20T16:45:47.384Z,30.31
2022-12-20T16:48:19.424Z,30.21
2022-12-20T16:50:51.269Z,30.26
2022-12-20T16:53:23.111Z,30.25
2022-12-20T16:55:55.170Z,30.20
2022-12-20T16:58:52.362Z,30.13
2022-12-20T17:01:20.777Z,30.11
2022-12-20T17:03:52.816Z,30.04
2022-12-20T17:06:24.877Z,30.07
2022-12-20T17:08:56.940Z,30.18
2022-12-20T17:11:30.539Z,30.16
2022-12-20T17:14:05.222Z,30.20
2022-12-20T17:16:41.672Z,30.22
2022-12-20T17:19:14.264Z,30.17
2022-12-20T17:24:36.041Z,30.09
2022-12-20T17:27:09.167Z,30.15
2022-12-20T17:29:41.227Z,30.19
2022-12-20T17:32:23.296Z,30.20
2022-12-20T17:34:55.510Z,30.27
2022-12-20T17:37:28.282Z,30.29
2022-12-20T17:40:00.494Z,30.31
2022-12-20T17:42:32.693Z,30.37
2022-12-20T17:45:04.874Z,30.31
2022-12-20T17:47:36.852Z,30.29
2022-12-20T17:50:09.960Z,30.29
2022-12-20T17:52:42.282Z,30.28
2022-12-20T17:55:18.457Z,30.24
2022-12-20T17:57:50.499Z,30.28
2022-12-20T18:00:23.687Z,30.23
2022-12-20T18:02:56.175Z,30.18
2022-12-20T18:05:28.318Z,30.23
2022-12-20T18:08:00.401Z,30.22
2022-12-20T18:10:32.293Z,30.12
2022-12-20T18:13:04.402Z,30.07
2022-12-20T18:15:38.162Z,30.02
2022-12-20T18:18:10.214Z,29.98
2022-12-20T18:20:42.342Z,29.94
2022-12-20T18:23:14.453Z,29.95
2022-12-20T18:25:46.307Z,29.91
2022-12-20T18:28:18.514Z,29.85
2022-12-20T18:30:50.363Z,29.90
2022-12-20T18:33:23.030Z,29.83
2022-12-20T18:36:02.243Z,29.80
2022-12-20T18:38:35.542Z,29.81
2022-12-20T18:41:08.353Z,29.74
2022-12-20T18:43:40.383Z,29.73
2022-12-20T18:46:13.678Z,29.73
2022-12-20T18:48:45.650Z,29.72
2022-12-20T18:51:18.602Z,29.66
2022-12-20T18:53:50.666Z,29.66
2022-12-20T18:56:25.705Z,29.66
2022-12-20T18:58:59.774Z,29.60
2022-12-20T19:01:34.640Z,29.66
2022-12-20T19:04:07.742Z,29.60
2022-12-20T19:06:40.077Z,29.48
2022-12-20T19:09:13.706Z,29.57
2022-12-20T19:11:45.821Z,29.51
2022-12-20T19:14:17.972Z,29.60
2022-12-20T19:16:50.128Z,29.60
2022-12-20T19:19:22.118Z,29.60
2022-12-20T19:21:54.061Z,29.61
2022-12-20T19:24:26.136Z,29.62
2022-12-20T19:26:58.295Z,29.67
2022-12-20T19:29:30.058Z,29.63
2022-12-20T19:32:01.869Z,29.59
2022-12-20T19:34:34.439Z,29.61
2022-12-20T19:37:06.480Z,29.58
2022-12-20T19:39:38.375Z,29.50
2022-12-20T19:42:25.890Z,29.54
2022-12-20T19:44:57.952Z,29.47
2022-12-20T19:47:29.781Z,29.55
2022-12-20T19:50:01.795Z,29.49
2022-12-20T19:52:33.951Z,29.48
2022-12-20T19:55:06.162Z,29.46
2022-12-20T19:57:38.561Z,29.51
2022-12-20T20:00:10.869Z,29.42
2022-12-20T20:02:45.860Z,29.39
2022-12-20T20:05:18.480Z,29.47
2022-12-20T20:07:51.370Z,29.48
2022-12-20T20:10:23.469Z,29.40
2022-12-20T20:12:55.363Z,29.37
2022-12-20T20:15:27.351Z,29.23
2022-12-20T20:17:59.493Z,29.24
2022-12-20T20:20:31.795Z,29.20
2022-12-20T20:23:03.755Z,29.22
2022-12-20T20:25:36.036Z,29.20
2022-12-20T20:28:07.977Z,29.25
2022-12-20T20:30:41.251Z,29.23
2022-12-20T20:33:13.436Z,29.33
2022-12-20T20:35:53.932Z,29.37
2022-12-20T20:38:26.374Z,29.39
2022-12-20T20:40:58.237Z,29.42
2022-12-20T20:43:30.291Z,29.37
2022-12-20T20:46:02.711Z,29.40
2022-12-20T20:48:35.375Z,29.35
2022-12-20T20:51:07.537Z,29.31
2022-12-20T20:53:39.797Z,29.32
2022-12-20T20:56:11.752Z,29.39
2022-12-20T20:58:43.686Z,29.49
2022-12-20T21:01:16.049Z,29.40
2022-12-20T21:03:48.917Z,29.34
2022-12-20T21:06:40.455Z,29.30
2022-12-20T21:09:12.723Z,29.30
2022-12-20T21:11:45.750Z,29.23
2022-12-20T21:14:30.559Z,29.20
2022-12-20T21:17:10.034Z,29.20
2022-12-20T21:19:41.815Z,29.23
2022-12-20T21:22:13.842Z,29.41
2022-12-20T21:24:45.629Z,29.40
2022-12-20T21:27:18.173Z,29.41
2022-12-20T21:29:50.750Z,29.46
2022-12-20T21:32:22.741Z,29.48
2022-12-20T21:34:54.669Z,29.59
2022-12-20T21:37:27.029Z,29.61
2022-12-20T21:39:59.125Z,29.68
2022-12-20T21:42:31.696Z,29.73
2022-12-20T21:45:03.554Z,29.80
2022-12-20T21:47:36.306Z,29.90
2022-12-20T21:50:08.216Z,29.96
2022-12-20T21:52:40.900Z,30.02
2022-12-20T21:55:12.702Z,30.10
2022-12-20T21:57:46.371Z,30.12
2022-12-20T22:00:20.325Z,30.17
2022-12-20T22:02:52.462Z,30.21
2022-12-20T22:05:24.566Z,30.27
2022-12-20T22:07:56.585Z,30.33
2022-12-20T22:10:28.745Z,30.35
2022-12-20T22:13:00.707Z,30.40
2022-12-20T22:15:32.531Z,30.44
2022-12-20T22:18:05.379Z,30.58
2022-12-20T22:20:37.444Z,30.62
2022-12-20T22:23:09.455Z,30.71
2022-12-20T22:25:41.716Z,30.73
2022-12-20T22:28:13.773Z,30.79
2022-12-20T22:30:46.626Z,30.81
2022-12-20T22:33:18.688Z,30.86
2022-12-20T22:35:50.755Z,30.88
2022-12-20T22:38:22.664Z,30.93
2022-12-20T22:40:59.193Z,30.99
2022-12-20T22:43:31.420Z,31.01
2022-12-20T22:48:53.197Z,31.15
2022-12-20T22:51:26.285Z,31.20
2022-12-20T22:54:00.397Z,31.22
2022-12-20T22:56:32.400Z,31.25
2022-12-20T22:59:04.456Z,31.29
2022-12-20T23:01:36.572Z,31.31
2022-12-20T23:04:11.481Z,31.30
2022-12-20T23:06:43.518Z,31.38
2022-12-20T23:09:15.388Z,31.44
2022-12-20T23:12:06.233Z,31.45
2022-12-20T23:15:03.392Z,31.50
2022-12-20T23:17:36.105Z,31.51
2022-12-20T23:20:26.946Z,31.57
2022-12-20T23:22:58.930Z,31.57
2022-12-20T23:25:30.966Z,31.60
2022-12-20T23:28:03.333Z,31.60
2022-12-20T23:30:35.242Z,31.65
2022-12-20T23:33:07.197Z,31.70
2022-12-20T23:35:39.977Z,31.70
2022-12-20T23:38:12.282Z,31.71
2022-12-20T23:40:44.278Z,31.72
2022-12-20T23:43:17.011Z,31.78
2022-12-20T23:45:48.990Z,31.80
2022-12-20T23:48:21.074Z,31.81
2022-12-20T23:50:56.539Z,31.85
2022-12-20T23:53:28.849Z,31.88
2022-12-20T23:56:02.645Z,31.91
2022-12-20T23:58:34.749Z,31.95
